sensor_id;sensor_type;location;lat;lon;timestamp;pressure;altitude;pressure_sealevel;temperature;humidity
40708;BME280;26392;42.696;23.350;2023-02-12T00:01:36;96280.53;;;0.64;50.47
40708;BME280;26392;42.696;23.350;2023-02-12T00:04:01;96286.06;;;0.71;51.25
40708;BME280;26392;42.696;23.350;2023-02-12T00:06:27;96278.16;;;0.77;51.17
40708;BME280;26392;42.696;23.350;2023-02-12T00:08:53;96282.22;;;0.81;51.31
40708;BME280;26392;42.696;23.350;2023-02-12T00:11:22;96281.00;;;0.84;51.03
40708;BME280;26392;42.696;23.350;2023-02-12T00:13:48;96295.28;;;0.84;51.28
40708;BME280;26392;42.696;23.350;2023-02-12T00:16:16;96289.03;;;0.84;51.30
40708;BME280;26392;42.696;23.350;2023-02-12T00:18:42;96286.06;;;0.87;50.85
40708;BME280;26392;42.696;23.350;2023-02-12T00:21:08;96289.38;;;0.89;51.03
40708;BME280;26392;42.696;23.350;2023-02-12T00:23:35;96285.03;;;0.88;50.63
40708;BME280;26392;42.696;23.350;2023-02-12T00:26:04;96268.13;;;0.79;50.69
40708;BME280;26392;42.696;23.350;2023-02-12T00:28:30;96283.03;;;0.82;51.23
40708;BME280;26392;42.696;23.350;2023-02-12T00:30:55;96280.69;;;0.79;51.27
40708;BME280;26392;42.696;23.350;2023-02-12T00:33:20;96275.84;;;0.74;51.13
40708;BME280;26392;42.696;23.350;2023-02-12T00:35:54;96265.78;;;0.76;50.83
40708;BME280;26392;42.696;23.350;2023-02-12T00:38:20;96266.94;;;0.82;50.63
40708;BME280;26392;42.696;23.350;2023-02-12T00:40:45;96258.56;;;0.77;50.81
40708;BME280;26392;42.696;23.350;2023-02-12T00:43:11;96265.78;;;0.76;50.82
40708;BME280;26392;42.696;23.350;2023-02-12T00:45:36;96262.56;;;0.73;51.03
40708;BME280;26392;42.696;23.350;2023-02-12T00:48:02;96265.94;;;0.75;51.26
40708;BME280;26392;42.696;23.350;2023-02-12T00:50:28;96250.84;;;0.74;50.88
40708;BME280;26392;42.696;23.350;2023-02-12T00:52:54;96248.34;;;0.72;50.98
40708;BME280;26392;42.696;23.350;2023-02-12T00:55:19;96242.97;;;0.72;50.92
40708;BME280;26392;42.696;23.350;2023-02-12T00:57:45;96245.81;;;0.79;51.09
40708;BME280;26392;42.696;23.350;2023-02-12T01:00:12;96246.31;;;0.74;50.97
40708;BME280;26392;42.696;23.350;2023-02-12T01:02:37;96222.69;;;0.70;50.86
40708;BME280;26392;42.696;23.350;2023-02-12T01:05:03;96236.09;;;0.70;51.78
40708;BME280;26392;42.696;23.350;2023-02-12T01:07:28;96249.22;;;0.64;51.14
40708;BME280;26392;42.696;23.350;2023-02-12T01:09:54;96244.69;;;0.65;51.49
40708;BME280;26392;42.696;23.350;2023-02-12T01:12:19;96247.00;;;0.68;51.58
40708;BME280;26392;42.696;23.350;2023-02-12T01:14:44;96250.38;;;0.62;51.44
40708;BME280;26392;42.696;23.350;2023-02-12T01:17:10;96249.53;;;0.53;52.08
40708;BME280;26392;42.696;23.350;2023-02-12T01:19:35;96251.91;;;0.48;52.18
40708;BME280;26392;42.696;23.350;2023-02-12T01:22:01;96250.91;;;0.41;52.81
40708;BME280;26392;42.696;23.350;2023-02-12T01:24:26;96249.56;;;0.37;53.32
40708;BME280;26392;42.696;23.350;2023-02-12T01:26:51;96256.59;;;0.30;53.67
40708;BME280;26392;42.696;23.350;2023-02-12T01:29:17;96250.22;;;0.31;54.22
40708;BME280;26392;42.696;23.350;2023-02-12T01:31:42;96256.94;;;0.35;53.29
40708;BME280;26392;42.696;23.350;2023-02-12T01:34:09;96244.22;;;0.29;53.95
40708;BME280;26392;42.696;23.350;2023-02-12T01:36:35;96250.06;;;0.40;53.39
40708;BME280;26392;42.696;23.350;2023-02-12T01:39:01;96239.84;;;0.36;54.45
40708;BME280;26392;42.696;23.350;2023-02-12T01:41:37;96245.53;;;0.41;53.71
40708;BME280;26392;42.696;23.350;2023-02-12T01:44:21;96233.97;;;0.32;54.97
40708;BME280;26392;42.696;23.350;2023-02-12T01:46:49;96229.97;;;0.28;55.06
40708;BME280;26392;42.696;23.350;2023-02-12T01:49:25;96222.09;;;0.18;55.26
40708;BME280;26392;42.696;23.350;2023-02-12T01:51:58;96221.94;;;0.20;55.38
40708;BME280;26392;42.696;23.350;2023-02-12T01:54:25;96210.06;;;0.06;56.21
40708;BME280;26392;42.696;23.350;2023-02-12T01:56:52;96215.41;;;0.06;56.22
40708;BME280;26392;42.696;23.350;2023-02-12T01:59:18;96220.78;;;0.06;56.69
40708;BME280;26392;42.696;23.350;2023-02-12T02:01:44;96231.97;;;0.02;56.83
40708;BME280;26392;42.696;23.350;2023-02-12T02:04:16;96227.44;;;-0.06;57.29
40708;BME280;26392;42.696;23.350;2023-02-12T02:06:57;96223.44;;;-0.10;57.84
40708;BME280;26392;42.696;23.350;2023-02-12T02:09:23;96224.25;;;-0.18;58.39
40708;BME280;26392;42.696;23.350;2023-02-12T02:11:49;96232.13;;;-0.25;59.06
40708;BME280;26392;42.696;23.350;2023-02-12T02:14:34;96231.09;;;-0.40;59.99
40708;BME280;26392;42.696;23.350;2023-02-12T02:33:23;96203.75;;;-0.68;66.54
40708;BME280;26392;42.696;23.350;2023-02-12T02:36:09;96215.97;;;-0.65;66.99
40708;BME280;26392;42.696;23.350;2023-02-12T02:41:14;96211.34;;;-0.55;66.33
40708;BME280;26392;42.696;23.350;2023-02-12T02:43:44;96215.69;;;-0.46;65.76
40708;BME280;26392;42.696;23.350;2023-02-12T02:46:17;96217.88;;;-0.41;66.03
40708;BME280;26392;42.696;23.350;2023-02-12T02:48:51;96218.38;;;-0.38;66.06
40708;BME280;26392;42.696;23.350;2023-02-12T02:51:22;96215.38;;;-0.35;65.40
40708;BME280;26392;42.696;23.350;2023-02-12T02:53:56;96211.38;;;-0.31;65.44
40708;BME280;26392;42.696;23.350;2023-02-12T02:56:25;96230.63;;;-0.27;64.73
40708;BME280;26392;42.696;23.350;2023-02-12T02:58:58;96219.25;;;-0.21;64.68
40708;BME280;26392;42.696;23.350;2023-02-12T03:01:27;96226.09;;;-0.27;64.56
40708;BME280;26392;42.696;23.350;2023-02-12T03:04:06;96215.38;;;-0.27;64.41
40708;BME280;26392;42.696;23.350;2023-02-12T03:06:42;96226.25;;;-0.20;64.39
40708;BME280;26392;42.696;23.350;2023-02-12T03:09:36;96215.41;;;-0.18;64.68
40708;BME280;26392;42.696;23.350;2023-02-12T03:12:07;96231.47;;;-0.18;63.68
40708;BME280;26392;42.696;23.350;2023-02-12T03:14:38;96233.31;;;-0.19;64.09
40708;BME280;26392;42.696;23.350;2023-02-12T03:19:50;96222.75;;;-0.20;64.44
40708;BME280;26392;42.696;23.350;2023-02-12T03:22:27;96216.06;;;-0.16;63.94
40708;BME280;26392;42.696;23.350;2023-02-12T03:24:57;96211.69;;;-0.17;64.06
40708;BME280;26392;42.696;23.350;2023-02-12T03:27:38;96218.06;;;-0.18;64.00
40708;BME280;26392;42.696;23.350;2023-02-12T03:30:07;96216.25;;;-0.10;63.89
40708;BME280;26392;42.696;23.350;2023-02-12T03:32:42;96221.94;;;-0.05;63.39
40708;BME280;26392;42.696;23.350;2023-02-12T03:35:22;96221.09;;;0.03;62.78
40708;BME280;26392;42.696;23.350;2023-02-12T03:38:09;96193.63;;;0.01;62.67
40708;BME280;26392;42.696;23.350;2023-02-12T03:40:44;96224.78;;;0.27;61.79
40708;BME280;26392;42.696;23.350;2023-02-12T03:43:19;96219.06;;;0.38;61.08
40708;BME280;26392;42.696;23.350;2023-02-12T03:45:57;96213.19;;;0.42;60.92
40708;BME280;26392;42.696;23.350;2023-02-12T03:48:33;96218.03;;;0.47;60.33
40708;BME280;26392;42.696;23.350;2023-02-12T03:53:44;96224.56;;;0.61;59.28
40708;BME280;26392;42.696;23.350;2023-02-12T03:56:18;96209.13;;;0.71;59.17
40708;BME280;26392;42.696;23.350;2023-02-12T03:58:44;96207.25;;;0.80;58.83
40708;BME280;26392;42.696;23.350;2023-02-12T04:01:11;96204.84;;;0.93;58.18
40708;BME280;26392;42.696;23.350;2023-02-12T04:03:37;96210.19;;;1.01;58.12
40708;BME280;26392;42.696;23.350;2023-02-12T04:06:03;96207.16;;;1.04;57.81
40708;BME280;26392;42.696;23.350;2023-02-12T04:08:29;96211.69;;;1.04;57.58
40708;BME280;26392;42.696;23.350;2023-02-12T04:11:24;96205.78;;;1.08;57.47
40708;BME280;26392;42.696;23.350;2023-02-12T04:16:32;96215.53;;;1.09;57.14
40708;BME280;26392;42.696;23.350;2023-02-12T04:19:00;96215.56;;;1.01;57.28
40708;BME280;26392;42.696;23.350;2023-02-12T04:27:16;96231.75;;;0.69;59.31
40708;BME280;26392;42.696;23.350;2023-02-12T04:38:20;96230.75;;;0.61;60.80
40708;BME280;26392;42.696;23.350;2023-02-12T04:40:47;96239.13;;;0.66;60.95
40708;BME280;26392;42.696;23.350;2023-02-12T04:43:13;96238.13;;;0.68;61.25
40708;BME280;26392;42.696;23.350;2023-02-12T04:45:39;96235.94;;;0.71;60.43
40708;BME280;26392;42.696;23.350;2023-02-12T04:48:05;96240.28;;;0.72;60.43
40708;BME280;26392;42.696;23.350;2023-02-12T04:50:40;96241.13;;;0.73;60.72
40708;BME280;26392;42.696;23.350;2023-02-12T04:53:07;96236.28;;;0.68;60.87
40708;BME280;26392;42.696;23.350;2023-02-12T04:55:33;96245.81;;;0.79;60.90
40708;BME280;26392;42.696;23.350;2023-02-12T04:57:59;96238.03;;;0.92;60.72
40708;BME280;26392;42.696;23.350;2023-02-12T05:00:24;96241.72;;;0.99;60.18
40708;BME280;26392;42.696;23.350;2023-02-12T05:02:50;96246.25;;;1.07;59.61
40708;BME280;26392;42.696;23.350;2023-02-12T05:05:15;96237.81;;;1.18;59.36
40708;BME280;26392;42.696;23.350;2023-02-12T05:07:41;96237.13;;;1.16;59.17
40708;BME280;26392;42.696;23.350;2023-02-12T05:10:07;96239.16;;;1.14;58.97
40708;BME280;26392;42.696;23.350;2023-02-12T05:12:32;96247.38;;;1.13;59.20
40708;BME280;26392;42.696;23.350;2023-02-12T05:14:58;96253.56;;;1.21;59.16
40708;BME280;26392;42.696;23.350;2023-02-12T05:17:23;96241.78;;;1.30;58.25
40708;BME280;26392;42.696;23.350;2023-02-12T05:19:49;96249.13;;;1.37;57.54
40708;BME280;26392;42.696;23.350;2023-02-12T05:22:15;96247.09;;;1.39;57.31
40708;BME280;26392;42.696;23.350;2023-02-12T05:24:40;96262.38;;;1.38;57.66
40708;BME280;26392;42.696;23.350;2023-02-12T05:27:06;96265.06;;;1.38;58.44
40708;BME280;26392;42.696;23.350;2023-02-12T05:29:33;96249.66;;;1.32;58.31
40708;BME280;26392;42.696;23.350;2023-02-12T05:31:59;96261.72;;;1.36;58.59
40708;BME280;26392;42.696;23.350;2023-02-12T05:34:24;96261.03;;;1.34;58.97
40708;BME280;26392;42.696;23.350;2023-02-12T05:36:50;96266.72;;;1.39;59.45
40708;BME280;26392;42.696;23.350;2023-02-12T05:39:15;96271.75;;;1.42;59.04
40708;BME280;26392;42.696;23.350;2023-02-12T05:41:41;96281.97;;;1.47;59.41
40708;BME280;26392;42.696;23.350;2023-02-12T05:44:06;96277.13;;;1.42;59.94
40708;BME280;26392;42.696;23.350;2023-02-12T05:46:32;96279.16;;;1.40;61.09
40708;BME280;26392;42.696;23.350;2023-02-12T05:48:58;96280.88;;;1.25;61.81
40708;BME280;26392;42.696;23.350;2023-02-12T05:51:25;96295.00;;;1.27;62.55
40708;BME280;26392;42.696;23.350;2023-02-12T05:53:55;96278.66;;;1.37;62.84
40708;BME280;26392;42.696;23.350;2023-02-12T05:56:26;96292.75;;;1.39;62.99
40708;BME280;26392;42.696;23.350;2023-02-12T05:59:06;96294.06;;;1.43;63.66
40708;BME280;26392;42.696;23.350;2023-02-12T06:01:40;96298.00;;;1.32;65.26
40708;BME280;26392;42.696;23.350;2023-02-12T06:04:09;96303.34;;;1.40;65.41
40708;BME280;26392;42.696;23.350;2023-02-12T06:06:35;96306.84;;;1.41;66.69
40708;BME280;26392;42.696;23.350;2023-02-12T06:09:00;96301.31;;;1.34;72.04
40708;BME280;26392;42.696;23.350;2023-02-12T06:11:26;96294.81;;;1.20;74.86
40708;BME280;26392;42.696;23.350;2023-02-12T06:13:52;96299.72;;;1.17;76.35
40708;BME280;26392;42.696;23.350;2023-02-12T06:16:25;96305.56;;;1.20;77.18
40708;BME280;26392;42.696;23.350;2023-02-12T06:18:53;96307.59;;;1.26;77.99
40708;BME280;26392;42.696;23.350;2023-02-12T06:21:20;96308.91;;;1.30;78.23
40708;BME280;26392;42.696;23.350;2023-02-12T06:23:46;96288.97;;;1.17;79.38
40708;BME280;26392;42.696;23.350;2023-02-12T06:26:13;96313.09;;;1.33;79.26
40708;BME280;26392;42.696;23.350;2023-02-12T06:28:39;96301.06;;;1.21;83.45
40708;BME280;26392;42.696;23.350;2023-02-12T06:31:05;96315.94;;;1.31;84.55
40708;BME280;26392;42.696;23.350;2023-02-12T06:33:30;96303.03;;;1.27;87.15
40708;BME280;26392;42.696;23.350;2023-02-12T06:35:57;96309.56;;;1.32;90.51
40708;BME280;26392;42.696;23.350;2023-02-12T06:38:22;96319.16;;;1.27;93.56
40708;BME280;26392;42.696;23.350;2023-02-12T06:40:47;96310.63;;;1.15;97.57
40708;BME280;26392;42.696;23.350;2023-02-12T06:43:13;96313.13;;;1.17;99.84
40708;BME280;26392;42.696;23.350;2023-02-12T06:45:38;96317.19;;;1.13;100.00
40708;BME280;26392;42.696;23.350;2023-02-12T06:48:04;96306.94;;;1.08;100.00
40708;BME280;26392;42.696;23.350;2023-02-12T06:50:30;96322.22;;;1.07;100.00
40708;BME280;26392;42.696;23.350;2023-02-12T06:52:57;96314.66;;;1.11;100.00
40708;BME280;26392;42.696;23.350;2023-02-12T06:55:23;96312.81;;;1.11;100.00
40708;BME280;26392;42.696;23.350;2023-02-12T06:57:48;96310.63;;;1.15;100.00
40708;BME280;26392;42.696;23.350;2023-02-12T07:00:14;96322.00;;;1.17;100.00
40708;BME280;26392;42.696;23.350;2023-02-12T07:02:39;96320.34;;;1.24;100.00
40708;BME280;26392;42.696;23.350;2023-02-12T07:05:05;96328.72;;;1.21;100.00
40708;BME280;26392;42.696;23.350;2023-02-12T07:07:30;96322.81;;;1.26;100.00
40708;BME280;26392;42.696;23.350;2023-02-12T07:09:56;96322.81;;;1.34;100.00
40708;BME280;26392;42.696;23.350;2023-02-12T07:12:21;96322.81;;;1.34;100.00
40708;BME280;26392;42.696;23.350;2023-02-12T07:14:46;96319.13;;;1.35;100.00
40708;BME280;26392;42.696;23.350;2023-02-12T07:17:12;96319.59;;;1.39;100.00
40708;BME280;26392;42.696;23.350;2023-02-12T07:19:37;96327.31;;;1.42;100.00
40708;BME280;26392;42.696;23.350;2023-02-12T07:22:02;96316.41;;;1.43;100.00
40708;BME280;26392;42.696;23.350;2023-02-12T07:24:28;96333.84;;;1.47;100.00
40708;BME280;26392;42.696;23.350;2023-02-12T07:26:53;96332.19;;;1.38;100.00
40708;BME280;26392;42.696;23.350;2023-02-12T07:29:19;96317.97;;;1.29;100.00
40708;BME280;26392;42.696;23.350;2023-02-12T07:31:44;96333.91;;;1.31;100.00
40708;BME280;26392;42.696;23.350;2023-02-12T07:34:10;96323.84;;;1.25;100.00
40708;BME280;26392;42.696;23.350;2023-02-12T07:36:36;96324.53;;;1.19;100.00
40708;BME280;26392;42.696;23.350;2023-02-12T07:39:03;96340.78;;;1.25;100.00
40708;BME280;26392;42.696;23.350;2023-02-12T07:41:34;96335.41;;;1.25;100.00
40708;BME280;26392;42.696;23.350;2023-02-12T07:44:05;96332.56;;;1.27;100.00
40708;BME280;26392;42.696;23.350;2023-02-12T07:46:51;96339.25;;;1.31;100.00
40708;BME280;26392;42.696;23.350;2023-02-12T07:49:20;96351.69;;;1.32;100.00
40708;BME280;26392;42.696;23.350;2023-02-12T07:51:46;96344.97;;;1.28;100.00
40708;BME280;26392;42.696;23.350;2023-02-12T07:54:12;96341.94;;;1.31;100.00
40708;BME280;26392;42.696;23.350;2023-02-12T07:56:39;96337.75;;;1.28;100.00
40708;BME280;26392;42.696;23.350;2023-02-12T07:59:08;96336.22;;;1.34;100.00
40708;BME280;26392;42.696;23.350;2023-02-12T08:01:36;96337.63;;;1.22;100.00
40708;BME280;26392;42.696;23.350;2023-02-12T08:04:13;96331.22;;;1.23;100.00
40708;BME280;26392;42.696;23.350;2023-02-12T08:06:42;96331.75;;;1.18;100.00
40708;BME280;26392;42.696;23.350;2023-02-12T08:09:10;96335.41;;;1.25;100.00
40708;BME280;26392;42.696;23.350;2023-02-12T08:11:38;96333.06;;;1.30;100.00
40708;BME280;26392;42.696;23.350;2023-02-12T08:14:04;96334.34;;;1.43;100.00
40708;BME280;26392;42.696;23.350;2023-02-12T08:16:30;96342.94;;;1.38;100.00
40708;BME280;26392;42.696;23.350;2023-02-12T08:18:56;96334.03;;;1.46;100.00
40708;BME280;26392;42.696;23.350;2023-02-12T08:21:24;96328.50;;;1.39;100.00
40708;BME280;26392;42.696;23.350;2023-02-12T08:23:50;96350.63;;;1.49;100.00
40708;BME280;26392;42.696;23.350;2023-02-12T08:26:28;96344.41;;;1.57;100.00
40708;BME280;26392;42.696;23.350;2023-02-12T08:28:59;96350.09;;;1.54;100.00
40708;BME280;26392;42.696;23.350;2023-02-12T08:31:29;96351.78;;;1.55;100.00
40708;BME280;26392;42.696;23.350;2023-02-12T08:33:55;96363.34;;;1.64;100.00
40708;BME280;26392;42.696;23.350;2023-02-12T08:36:43;96361.50;;;1.56;100.00
40708;BME280;26392;42.696;23.350;2023-02-12T08:39:08;96359.53;;;1.50;100.00
40708;BME280;26392;42.696;23.350;2023-02-12T08:41:35;96374.47;;;1.52;100.00
40708;BME280;26392;42.696;23.350;2023-02-12T08:44:02;96370.41;;;1.56;100.00
40708;BME280;26392;42.696;23.350;2023-02-12T08:46:30;96375.03;;;1.71;100.00
40708;BME280;26392;42.696;23.350;2023-02-12T08:49:01;96381.41;;;1.78;100.00
40708;BME280;26392;42.696;23.350;2023-02-12T08:51:30;96383.19;;;1.94;100.00
40708;BME280;26392;42.696;23.350;2023-02-12T08:54:01;96381.50;;;1.93;100.00
40708;BME280;26392;42.696;23.350;2023-02-12T08:56:29;96381.16;;;1.96;100.00
40708;BME280;26392;42.696;23.350;2023-02-12T08:58:56;96382.97;;;2.04;100.00
40708;BME280;26392;42.696;23.350;2023-02-12T09:01:24;96387.03;;;1.99;100.00
40708;BME280;26392;42.696;23.350;2023-02-12T09:03:50;96387.84;;;2.08;100.00
40708;BME280;26392;42.696;23.350;2023-02-12T09:06:17;96386.38;;;1.97;100.00
40708;BME280;26392;42.696;23.350;2023-02-12T09:08:43;96399.09;;;2.04;100.00
40708;BME280;26392;42.696;23.350;2023-02-12T09:11:14;96394.34;;;2.14;99.28
40708;BME280;26392;42.696;23.350;2023-02-12T09:13:44;96395.66;;;2.18;99.13
40708;BME280;26392;42.696;23.350;2023-02-12T09:16:10;96391.94;;;2.27;98.32
40708;BME280;26392;42.696;23.350;2023-02-12T09:18:36;96400.59;;;2.37;100.00
40708;BME280;26392;42.696;23.350;2023-02-12T09:21:09;96398.41;;;2.41;100.00
40708;BME280;26392;42.696;23.350;2023-02-12T09:23:36;96402.06;;;2.48;99.12
40708;BME280;26392;42.696;23.350;2023-02-12T09:26:06;96396.31;;;2.51;98.22
40708;BME280;26392;42.696;23.350;2023-02-12T09:28:33;96397.34;;;2.50;98.08
40708;BME280;26392;42.696;23.350;2023-02-12T09:31:04;96399.63;;;2.61;97.28
40708;BME280;26392;42.696;23.350;2023-02-12T09:33:30;96410.44;;;2.53;96.76
40708;BME280;26392;42.696;23.350;2023-02-12T09:36:00;96406.00;;;2.60;96.57
40708;BME280;26392;42.696;23.350;2023-02-12T09:38:26;96409.81;;;2.66;95.78
40708;BME280;26392;42.696;23.350;2023-02-12T09:41:26;96414.72;;;2.62;95.67
40708;BME280;26392;42.696;23.350;2023-02-12T09:46:30;96407.28;;;2.73;94.43
40708;BME280;26392;42.696;23.350;2023-02-12T09:51:51;96424.31;;;2.88;93.10
40708;BME280;26392;42.696;23.350;2023-02-12T09:54:21;96420.84;;;2.79;93.64
40708;BME280;26392;42.696;23.350;2023-02-12T09:56:51;96424.09;;;2.75;94.19
40708;BME280;26392;42.696;23.350;2023-02-12T09:59:29;96418.34;;;2.78;94.41
40708;BME280;26392;42.696;23.350;2023-02-12T10:01:58;96419.53;;;2.98;94.02
40708;BME280;26392;42.696;23.350;2023-02-12T10:04:24;96412.38;;;3.28;92.67
40708;BME280;26392;42.696;23.350;2023-02-12T10:07:06;96419.81;;;3.41;89.42
40708;BME280;26392;42.696;23.350;2023-02-12T10:17:44;96417.22;;;3.63;85.69
40708;BME280;26392;42.696;23.350;2023-02-12T10:27:55;96408.88;;;3.87;83.39
40708;BME280;26392;42.696;23.350;2023-02-12T10:32:59;96418.63;;;3.73;82.57
40708;BME280;26392;42.696;23.350;2023-02-12T10:35:27;96426.72;;;3.58;84.53
40708;BME280;26392;42.696;23.350;2023-02-12T10:37:59;96429.41;;;3.73;84.84
40708;BME280;26392;42.696;23.350;2023-02-12T10:40:31;96416.41;;;3.77;84.19
40708;BME280;26392;42.696;23.350;2023-02-12T10:42:59;96411.09;;;3.84;83.81
40708;BME280;26392;42.696;23.350;2023-02-12T10:45:38;96407.69;;;3.90;83.38
40708;BME280;26392;42.696;23.350;2023-02-12T10:53:31;96413.81;;;4.49;78.55
40708;BME280;26392;42.696;23.350;2023-02-12T10:58:34;96420.63;;;4.67;76.17
40708;BME280;26392;42.696;23.350;2023-02-12T11:01:00;96425.91;;;4.75;76.08
40708;BME280;26392;42.696;23.350;2023-02-12T11:03:29;96430.38;;;4.83;74.81
40708;BME280;26392;42.696;23.350;2023-02-12T11:08:37;96428.78;;;4.52;74.84
40708;BME280;26392;42.696;23.350;2023-02-12T11:11:13;96424.34;;;4.44;75.60
40708;BME280;26392;42.696;23.350;2023-02-12T11:13:46;96425.03;;;4.53;76.16
40708;BME280;26392;42.696;23.350;2023-02-12T11:16:13;96428.03;;;4.58;75.74
40708;BME280;26392;42.696;23.350;2023-02-12T11:19:00;96416.22;;;4.81;73.94
40708;BME280;26392;42.696;23.350;2023-02-12T11:21:26;96412.88;;;5.00;72.78
40708;BME280;26392;42.696;23.350;2023-02-12T11:23:51;96419.38;;;5.06;71.95
40708;BME280;26392;42.696;23.350;2023-02-12T11:28:58;96396.94;;;5.05;71.56
40708;BME280;26392;42.696;23.350;2023-02-12T11:31:25;96409.78;;;5.03;72.28
40708;BME280;26392;42.696;23.350;2023-02-12T11:34:24;96411.22;;;4.99;72.33
40708;BME280;26392;42.696;23.350;2023-02-12T11:36:51;96412.19;;;5.13;72.21
40708;BME280;26392;42.696;23.350;2023-02-12T11:39:27;96412.63;;;5.16;71.62
40708;BME280;26392;42.696;23.350;2023-02-12T11:41:56;96409.09;;;5.44;70.73
40708;BME280;26392;42.696;23.350;2023-02-12T11:44:35;96417.22;;;5.44;69.19
40708;BME280;26392;42.696;23.350;2023-02-12T11:47:05;96409.81;;;5.31;69.52
40708;BME280;26392;42.696;23.350;2023-02-12T11:49:37;96407.19;;;5.38;69.65
40708;BME280;26392;42.696;23.350;2023-02-12T11:52:05;96398.00;;;5.32;69.29
40708;BME280;26392;42.696;23.350;2023-02-12T11:54:40;96413.03;;;5.42;68.92
40708;BME280;26392;42.696;23.350;2023-02-12T11:57:33;96411.94;;;5.36;69.10
40708;BME280;26392;42.696;23.350;2023-02-12T11:59:55;96410.88;;;5.30;69.43
40708;BME280;26392;42.696;23.350;2023-02-12T12:02:31;96401.53;;;5.11;69.95
40708;BME280;26392;42.696;23.350;2023-02-12T12:05:31;96413.75;;;5.29;69.89
40708;BME280;26392;42.696;23.350;2023-02-12T12:08:03;96417.88;;;5.25;69.41
40708;BME280;26392;42.696;23.350;2023-02-12T12:10:33;96407.25;;;5.23;69.44
40708;BME280;26392;42.696;23.350;2023-02-12T12:13:05;96414.13;;;5.26;70.46
40708;BME280;26392;42.696;23.350;2023-02-12T12:15:43;96413.56;;;5.30;69.95
40708;BME280;26392;42.696;23.350;2023-02-12T12:18:43;96406.72;;;5.34;70.29
40708;BME280;26392;42.696;23.350;2023-02-12T12:24:40;96421.31;;;5.40;69.78
40708;BME280;26392;42.696;23.350;2023-02-12T12:27:30;96420.06;;;5.36;69.86
40708;BME280;26392;42.696;23.350;2023-02-12T12:30:33;96408.16;;;5.09;70.08
40708;BME280;26392;42.696;23.350;2023-02-12T12:33:04;96433.66;;;5.21;70.64
40708;BME280;26392;42.696;23.350;2023-02-12T12:35:46;96432.56;;;5.15;70.68
40708;BME280;26392;42.696;23.350;2023-02-12T12:41:14;96428.03;;;5.01;71.75
40708;BME280;26392;42.696;23.350;2023-02-12T12:44:19;96428.94;;;5.08;71.96
40708;BME280;26392;42.696;23.350;2023-02-12T12:46:39;96430.81;;;5.08;71.94
40708;BME280;26392;42.696;23.350;2023-02-12T12:49:29;96433.53;;;5.08;72.15
40708;BME280;26392;42.696;23.350;2023-02-12T12:52:32;96431.91;;;4.92;73.57
40708;BME280;26392;42.696;23.350;2023-02-12T13:03:20;96438.25;;;4.84;74.84
40708;BME280;26392;42.696;23.350;2023-02-12T13:08:55;96441.69;;;4.71;75.47
40708;BME280;26392;42.696;23.350;2023-02-12T13:11:50;96452.47;;;4.71;75.62
40708;BME280;26392;42.696;23.350;2023-02-12T13:27:21;96454.41;;;5.21;73.48
40708;BME280;26392;42.696;23.350;2023-02-12T13:29:52;96449.66;;;5.23;72.07
40708;BME280;26392;42.696;23.350;2023-02-12T13:32:28;96449.88;;;5.21;72.16
40708;BME280;26392;42.696;23.350;2023-02-12T13:34:55;96447.34;;;5.41;71.02
40708;BME280;26392;42.696;23.350;2023-02-12T13:37:36;96446.34;;;5.49;71.02
40708;BME280;26392;42.696;23.350;2023-02-12T13:40:07;96449.66;;;5.44;70.64
40708;BME280;26392;42.696;23.350;2023-02-12T13:42:49;96456.31;;;5.48;70.74
40708;BME280;26392;42.696;23.350;2023-02-12T13:54:45;96474.44;;;5.05;72.13
40708;BME280;26392;42.696;23.350;2023-02-12T13:57:15;96464.13;;;4.93;72.09
40708;BME280;26392;42.696;23.350;2023-02-12T13:59:45;96457.91;;;4.93;72.35
40708;BME280;26392;42.696;23.350;2023-02-12T14:07:10;96482.00;;;4.94;72.37
40708;BME280;26392;42.696;23.350;2023-02-12T14:12:33;96496.56;;;4.93;73.73
40708;BME280;26392;42.696;23.350;2023-02-12T14:15:08;96490.94;;;4.95;74.23
40708;BME280;26392;42.696;23.350;2023-02-12T14:38:01;96512.72;;;4.57;79.37
40708;BME280;26392;42.696;23.350;2023-02-12T14:42:59;96523.03;;;4.54;80.21
40708;BME280;26392;42.696;23.350;2023-02-12T14:45:43;96531.72;;;4.49;80.26
40708;BME280;26392;42.696;23.350;2023-02-12T14:51:04;96545.50;;;4.39;81.49
40708;BME280;26392;42.696;23.350;2023-02-12T14:53:33;96543.00;;;4.38;81.93
40708;BME280;26392;42.696;23.350;2023-02-12T14:56:00;96545.50;;;4.39;80.91
40708;BME280;26392;42.696;23.350;2023-02-12T14:58:27;96552.59;;;4.40;81.20
40708;BME280;26392;42.696;23.350;2023-02-12T15:00:55;96555.81;;;4.36;80.55
40708;BME280;26392;42.696;23.350;2023-02-12T15:16:23;96577.25;;;3.85;88.51
40708;BME280;26392;42.696;23.350;2023-02-12T15:19:01;96593.53;;;3.91;88.93
40708;BME280;26392;42.696;23.350;2023-02-12T15:21:31;96577.06;;;3.86;88.54
40708;BME280;26392;42.696;23.350;2023-02-12T15:26:26;96600.88;;;3.97;88.59
40708;BME280;26392;42.696;23.350;2023-02-12T15:28:53;96616.22;;;3.97;88.65
40708;BME280;26392;42.696;23.350;2023-02-12T15:31:21;96624.69;;;3.94;89.36
40708;BME280;26392;42.696;23.350;2023-02-12T15:33:51;96619.97;;;3.96;89.75
40708;BME280;26392;42.696;23.350;2023-02-12T15:36:21;96625.72;;;3.93;89.91
40708;BME280;26392;42.696;23.350;2023-02-12T15:38:51;96628.78;;;3.90;91.23
40708;BME280;26392;42.696;23.350;2023-02-12T15:43:52;96631.41;;;3.98;90.46
40708;BME280;26392;42.696;23.350;2023-02-12T15:46:17;96633.44;;;3.96;90.96
40708;BME280;26392;42.696;23.350;2023-02-12T15:48:43;96638.69;;;3.89;91.35
40708;BME280;26392;42.696;23.350;2023-02-12T15:51:32;96634.19;;;3.90;91.58
40708;BME280;26392;42.696;23.350;2023-02-12T15:54:03;96640.94;;;3.86;92.03
40708;BME280;26392;42.696;23.350;2023-02-12T15:56:29;96646.59;;;3.76;93.26
40708;BME280;26392;42.696;23.350;2023-02-12T15:58:58;96653.47;;;3.78;92.88
40708;BME280;26392;42.696;23.350;2023-02-12T16:01:30;96653.28;;;3.80;92.88
40708;BME280;26392;42.696;23.350;2023-02-12T16:04:00;96667.00;;;3.70;94.77